sensor_id;sensor_type;location;lat;lon;timestamp;P1;durP1;ratioP1;P2;durP2;ratioP2
20711;SDS011;10517;50.742;4.224;2022-09-09T00:03:57;4.65;;;4.45;;
20711;SDS011;10517;50.742;4.224;2022-09-09T00:06:31;4.20;;;4.10;;
20711;SDS011;10517;50.742;4.224;2022-09-09T00:11:43;4.30;;;4.20;;
20711;SDS011;10517;50.742;4.224;2022-09-09T00:14:51;4.22;;;4.13;;
20711;SDS011;10517;50.742;4.224;2022-09-09T00:23:16;4.30;;;4.20;;
20711;SDS011;10517;50.742;4.224;2022-09-09T00:28:33;4.40;;;4.30;;
20711;SDS011;10517;50.742;4.224;2022-09-09T00:31:11;4.30;;;4.20;;
20711;SDS011;10517;50.742;4.224;2022-09-09T00:33:41;4.50;;;4.40;;
20711;SDS011;10517;50.742;4.224;2022-09-09T00:36:09;4.90;;;4.70;;
20711;SDS011;10517;50.742;4.224;2022-09-09T00:38:42;4.60;;;4.50;;
20711;SDS011;10517;50.742;4.224;2022-09-09T00:44:02;4.55;;;4.45;;
20711;SDS011;10517;50.742;4.224;2022-09-09T00:49:25;4.30;;;4.20;;
20711;SDS011;10517;50.742;4.224;2022-09-09T00:52:02;4.00;;;3.90;;
20711;SDS011;10517;50.742;4.224;2022-09-09T00:54:48;4.85;;;4.65;;
20711;SDS011;10517;50.742;4.224;2022-09-09T00:57:25;3.70;;;3.60;;
20711;SDS011;10517;50.742;4.224;2022-09-09T01:05:37;3.67;;;3.58;;
20711;SDS011;10517;50.742;4.224;2022-09-09T01:10:55;4.57;;;4.38;;
20711;SDS011;10517;50.742;4.224;2022-09-09T01:13:30;3.80;;;3.70;;
20711;SDS011;10517;50.742;4.224;2022-09-09T01:15:59;3.50;;;3.40;;
20711;SDS011;10517;50.742;4.224;2022-09-09T01:18:36;3.40;;;3.30;;
20711;SDS011;10517;50.742;4.224;2022-09-09T01:26:41;3.90;;;3.80;;
20711;SDS011;10517;50.742;4.224;2022-09-09T01:29:09;3.63;;;3.53;;
20711;SDS011;10517;50.742;4.224;2022-09-09T01:34:15;3.50;;;3.40;;
20711;SDS011;10517;50.742;4.224;2022-09-09T01:36:45;3.72;;;3.63;;
20711;SDS011;10517;50.742;4.224;2022-09-09T01:39:31;4.07;;;3.92;;
20711;SDS011;10517;50.742;4.224;2022-09-09T01:41:59;3.80;;;3.70;;
20711;SDS011;10517;50.742;4.224;2022-09-09T01:44:25;3.50;;;3.40;;
20711;SDS011;10517;50.742;4.224;2022-09-09T01:46:52;4.65;;;4.35;;
20711;SDS011;10517;50.742;4.224;2022-09-09T01:49:18;3.90;;;3.80;;
20711;SDS011;10517;50.742;4.224;2022-09-09T01:51:44;3.80;;;3.70;;
20711;SDS011;10517;50.742;4.224;2022-09-09T01:54:14;4.30;;;4.10;;
20711;SDS011;10517;50.742;4.224;2022-09-09T02:02:09;3.60;;;3.50;;
20711;SDS011;10517;50.742;4.224;2022-09-09T02:05:00;3.58;;;3.47;;
20711;SDS011;10517;50.742;4.224;2022-09-09T02:07:54;3.97;;;3.88;;
20711;SDS011;10517;50.742;4.224;2022-09-09T02:13:11;3.92;;;3.83;;
20711;SDS011;10517;50.742;4.224;2022-09-09T02:18:35;3.75;;;3.65;;
20711;SDS011;10517;50.742;4.224;2022-09-09T02:21:02;3.47;;;3.38;;
20711;SDS011;10517;50.742;4.224;2022-09-09T02:23:28;3.50;;;3.40;;
20711;SDS011;10517;50.742;4.224;2022-09-09T02:25:55;4.88;;;4.63;;
20711;SDS011;10517;50.742;4.224;2022-09-09T02:28:23;4.00;;;3.90;;
20711;SDS011;10517;50.742;4.224;2022-09-09T02:30:51;3.40;;;3.30;;
20711;SDS011;10517;50.742;4.224;2022-09-09T02:33:21;3.78;;;3.67;;
20711;SDS011;10517;50.742;4.224;2022-09-09T02:35:50;5.22;;;5.03;;
20711;SDS011;10517;50.742;4.224;2022-09-09T02:38:17;4.97;;;4.78;;
20711;SDS011;10517;50.742;4.224;2022-09-09T02:40:45;8.25;;;4.60;;
20711;SDS011;10517;50.742;4.224;2022-09-09T02:43:11;3.50;;;3.40;;
20711;SDS011;10517;50.742;4.224;2022-09-09T02:45:42;3.85;;;3.75;;
20711;SDS011;10517;50.742;4.224;2022-09-09T02:48:20;3.90;;;3.80;;
20711;SDS011;10517;50.742;4.224;2022-09-09T02:56:18;4.90;;;4.70;;
20711;SDS011;10517;50.742;4.224;2022-09-09T02:58:48;3.80;;;3.70;;
20711;SDS011;10517;50.742;4.224;2022-09-09T03:01:14;3.70;;;3.60;;
20711;SDS011;10517;50.742;4.224;2022-09-09T03:03:40;4.10;;;3.90;;
20711;SDS011;10517;50.742;4.224;2022-09-09T03:06:07;3.85;;;3.75;;
20711;SDS011;10517;50.742;4.224;2022-09-09T03:08:33;3.80;;;3.70;;
20711;SDS011;10517;50.742;4.224;2022-09-09T03:10:59;3.20;;;3.10;;
20711;SDS011;10517;50.742;4.224;2022-09-09T03:13:26;5.65;;;3.88;;
20711;SDS011;10517;50.742;4.224;2022-09-09T03:15:52;3.40;;;3.30;;
20711;SDS011;10517;50.742;4.224;2022-09-09T03:18:17;3.45;;;3.35;;
20711;SDS011;10517;50.742;4.224;2022-09-09T03:20:43;4.03;;;3.92;;
20711;SDS011;10517;50.742;4.224;2022-09-09T03:23:08;3.30;;;3.20;;
20711;SDS011;10517;50.742;4.224;2022-09-09T03:25:34;3.20;;;3.10;;
20711;SDS011;10517;50.742;4.224;2022-09-09T03:28:00;3.00;;;2.90;;
20711;SDS011;10517;50.742;4.224;2022-09-09T03:30:27;3.10;;;3.00;;
20711;SDS011;10517;50.742;4.224;2022-09-09T03:32:53;3.35;;;3.25;;
20711;SDS011;10517;50.742;4.224;2022-09-09T03:35:19;3.20;;;3.10;;
20711;SDS011;10517;50.742;4.224;2022-09-09T03:37:45;3.97;;;3.83;;
20711;SDS011;10517;50.742;4.224;2022-09-09T03:40:11;3.10;;;3.00;;
20711;SDS011;10517;50.742;4.224;2022-09-09T03:42:37;3.10;;;3.00;;
20711;SDS011;10517;50.742;4.224;2022-09-09T03:45:03;3.15;;;3.05;;
20711;SDS011;10517;50.742;4.224;2022-09-09T03:47:30;3.22;;;3.13;;
20711;SDS011;10517;50.742;4.224;2022-09-09T03:49:55;3.10;;;3.00;;
20711;SDS011;10517;50.742;4.224;2022-09-09T03:52:21;5.70;;;5.20;;
20711;SDS011;10517;50.742;4.224;2022-09-09T03:54:50;3.78;;;3.67;;
20711;SDS011;10517;50.742;4.224;2022-09-09T03:57:16;3.30;;;3.20;;
20711;SDS011;10517;50.742;4.224;2022-09-09T03:59:42;2.90;;;2.80;;
20711;SDS011;10517;50.742;4.224;2022-09-09T04:02:08;3.30;;;3.20;;
20711;SDS011;10517;50.742;4.224;2022-09-09T04:04:34;3.20;;;3.10;;
20711;SDS011;10517;50.742;4.224;2022-09-09T04:07:00;4.07;;;3.88;;
20711;SDS011;10517;50.742;4.224;2022-09-09T04:09:26;3.28;;;3.17;;
20711;SDS011;10517;50.742;4.224;2022-09-09T04:11:51;3.30;;;3.20;;
20711;SDS011;10517;50.742;4.224;2022-09-09T04:14:18;3.30;;;3.20;;
20711;SDS011;10517;50.742;4.224;2022-09-09T04:16:44;3.55;;;3.45;;
20711;SDS011;10517;50.742;4.224;2022-09-09T04:19:10;3.50;;;3.40;;
20711;SDS011;10517;50.742;4.224;2022-09-09T04:21:38;3.50;;;3.40;;
20711;SDS011;10517;50.742;4.224;2022-09-09T04:24:05;22.75;;;4.95;;
20711;SDS011;10517;50.742;4.224;2022-09-09T04:26:32;3.40;;;3.30;;
20711;SDS011;10517;50.742;4.224;2022-09-09T04:28:58;3.67;;;3.58;;
20711;SDS011;10517;50.742;4.224;2022-09-09T04:31:23;3.50;;;3.40;;
20711;SDS011;10517;50.742;4.224;2022-09-09T04:33:52;3.83;;;3.58;;
20711;SDS011;10517;50.742;4.224;2022-09-09T04:36:18;3.30;;;3.20;;
20711;SDS011;10517;50.742;4.224;2022-09-09T04:38:44;3.70;;;3.60;;
20711;SDS011;10517;50.742;4.224;2022-09-09T04:41:11;3.53;;;3.42;;
20711;SDS011;10517;50.742;4.224;2022-09-09T04:43:37;3.20;;;3.10;;
20711;SDS011;10517;50.742;4.224;2022-09-09T04:46:04;4.40;;;4.00;;
20711;SDS011;10517;50.742;4.224;2022-09-09T04:48:30;3.00;;;2.90;;
20711;SDS011;10517;50.742;4.224;2022-09-09T04:53:22;3.03;;;2.92;;
20711;SDS011;10517;50.742;4.224;2022-09-09T04:55:48;3.25;;;3.15;;
20711;SDS011;10517;50.742;4.224;2022-09-09T04:58:14;3.00;;;2.90;;
20711;SDS011;10517;50.742;4.224;2022-09-09T05:00:40;3.20;;;3.10;;
20711;SDS011;10517;50.742;4.224;2022-09-09T05:03:06;4.20;;;3.95;;
20711;SDS011;10517;50.742;4.224;2022-09-09T05:05:33;4.63;;;4.32;;
20711;SDS011;10517;50.742;4.224;2022-09-09T05:08:06;4.20;;;4.10;;
20711;SDS011;10517;50.742;4.224;2022-09-09T05:10:33;3.95;;;3.85;;
20711;SDS011;10517;50.742;4.224;2022-09-09T05:13:01;3.83;;;3.72;;
20711;SDS011;10517;50.742;4.224;2022-09-09T05:15:26;4.10;;;4.00;;
20711;SDS011;10517;50.742;4.224;2022-09-09T05:17:52;12.20;;;5.43;;
20711;SDS011;10517;50.742;4.224;2022-09-09T05:20:23;5.47;;;5.28;;
20711;SDS011;10517;50.742;4.224;2022-09-09T05:22:52;5.35;;;5.15;;
20711;SDS011;10517;50.742;4.224;2022-09-09T05:25:21;5.68;;;5.45;;
20711;SDS011;10517;50.742;4.224;2022-09-09T05:27:49;6.38;;;6.18;;
20711;SDS011;10517;50.742;4.224;2022-09-09T05:30:15;6.05;;;5.75;;
20711;SDS011;10517;50.742;4.224;2022-09-09T05:32:40;6.22;;;6.03;;
20711;SDS011;10517;50.742;4.224;2022-09-09T05:35:06;6.00;;;5.80;;
20711;SDS011;10517;50.742;4.224;2022-09-09T05:37:32;6.55;;;6.35;;
20711;SDS011;10517;50.742;4.224;2022-09-09T05:39:57;7.30;;;7.00;;
20711;SDS011;10517;50.742;4.224;2022-09-09T05:42:23;6.80;;;6.60;;
20711;SDS011;10517;50.742;4.224;2022-09-09T05:44:49;6.93;;;6.72;;
20711;SDS011;10517;50.742;4.224;2022-09-09T05:47:15;7.23;;;7.03;;
20711;SDS011;10517;50.742;4.224;2022-09-09T05:49:42;7.50;;;7.30;;
20711;SDS011;10517;50.742;4.224;2022-09-09T05:52:07;7.80;;;7.50;;
20711;SDS011;10517;50.742;4.224;2022-09-09T05:54:34;7.43;;;7.22;;
20711;SDS011;10517;50.742;4.224;2022-09-09T05:57:00;8.00;;;7.70;;
20711;SDS011;10517;50.742;4.224;2022-09-09T05:59:25;9.38;;;8.48;;
20711;SDS011;10517;50.742;4.224;2022-09-09T06:01:51;9.77;;;9.25;;
20711;SDS011;10517;50.742;4.224;2022-09-09T06:04:17;8.00;;;7.70;;
20711;SDS011;10517;50.742;4.224;2022-09-09T06:06:42;8.75;;;8.13;;
20711;SDS011;10517;50.742;4.224;2022-09-09T06:09:09;7.68;;;7.40;;
20711;SDS011;10517;50.742;4.224;2022-09-09T06:11:35;8.50;;;8.20;;
20711;SDS011;10517;50.742;4.224;2022-09-09T06:14:03;8.90;;;8.55;;
20711;SDS011;10517;50.742;4.224;2022-09-09T06:16:29;8.40;;;8.10;;
20711;SDS011;10517;50.742;4.224;2022-09-09T06:18:57;8.40;;;8.10;;
20711;SDS011;10517;50.742;4.224;2022-09-09T06:21:24;8.60;;;8.30;;
20711;SDS011;10517;50.742;4.224;2022-09-09T06:23:55;8.45;;;8.15;;
20711;SDS011;10517;50.742;4.224;2022-09-09T06:26:22;8.23;;;7.93;;
20711;SDS011;10517;50.742;4.224;2022-09-09T06:28:50;7.20;;;7.00;;
20711;SDS011;10517;50.742;4.224;2022-09-09T06:31:18;7.97;;;7.68;;
20711;SDS011;10517;50.742;4.224;2022-09-09T06:33:48;8.32;;;8.02;;
20711;SDS011;10517;50.742;4.224;2022-09-09T06:36:16;7.60;;;7.40;;
20711;SDS011;10517;50.742;4.224;2022-09-09T06:38:43;7.10;;;6.90;;
20711;SDS011;10517;50.742;4.224;2022-09-09T06:41:09;7.97;;;7.68;;
20711;SDS011;10517;50.742;4.224;2022-09-09T06:43:37;6.60;;;6.40;;
20711;SDS011;10517;50.742;4.224;2022-09-09T06:46:24;8.15;;;7.40;;
20711;SDS011;10517;50.742;4.224;2022-09-09T06:48:54;7.75;;;7.20;;
20711;SDS011;10517;50.742;4.224;2022-09-09T06:51:22;6.32;;;6.13;;
20711;SDS011;10517;50.742;4.224;2022-09-09T06:53:51;5.40;;;5.20;;
20711;SDS011;10517;50.742;4.224;2022-09-09T06:56:27;5.78;;;5.57;;
20711;SDS011;10517;50.742;4.224;2022-09-09T06:58:56;8.32;;;6.38;;
20711;SDS011;10517;50.742;4.224;2022-09-09T07:01:29;6.70;;;6.38;;
20711;SDS011;10517;50.742;4.224;2022-09-09T07:03:57;5.50;;;5.30;;
20711;SDS011;10517;50.742;4.224;2022-09-09T07:06:31;5.47;;;5.28;;
20711;SDS011;10517;50.742;4.224;2022-09-09T07:08:59;5.88;;;5.68;;
20711;SDS011;10517;50.742;4.224;2022-09-09T07:11:31;5.30;;;5.10;;
20711;SDS011;10517;50.742;4.224;2022-09-09T07:13:58;4.32;;;4.22;;
20711;SDS011;10517;50.742;4.224;2022-09-09T07:16:25;5.57;;;5.38;;
20711;SDS011;10517;50.742;4.224;2022-09-09T07:18:52;4.60;;;4.50;;
20711;SDS011;10517;50.742;4.224;2022-09-09T07:21:20;5.55;;;5.35;;
20711;SDS011;10517;50.742;4.224;2022-09-09T07:23:46;5.43;;;5.22;;
20711;SDS011;10517;50.742;4.224;2022-09-09T07:26:16;6.60;;;6.13;;
20711;SDS011;10517;50.742;4.224;2022-09-09T07:28:47;4.50;;;4.40;;
20711;SDS011;10517;50.742;4.224;2022-09-09T07:31:17;4.90;;;4.70;;
20711;SDS011;10517;50.742;4.224;2022-09-09T07:33:45;5.40;;;4.40;;
20711;SDS011;10517;50.742;4.224;2022-09-09T07:36:16;4.07;;;3.97;;
20711;SDS011;10517;50.742;4.224;2022-09-09T07:38:48;4.20;;;4.10;;
20711;SDS011;10517;50.742;4.224;2022-09-09T07:41:20;4.38;;;4.28;;
20711;SDS011;10517;50.742;4.224;2022-09-09T07:43:48;4.50;;;4.40;;
20711;SDS011;10517;50.742;4.224;2022-09-09T07:46:14;4.00;;;3.90;;
20711;SDS011;10517;50.742;4.224;2022-09-09T07:48:44;3.90;;;3.80;;
20711;SDS011;10517;50.742;4.224;2022-09-09T07:51:16;5.50;;;5.05;;
20711;SDS011;10517;50.742;4.224;2022-09-09T07:53:44;3.67;;;3.58;;
20711;SDS011;10517;50.742;4.224;2022-09-09T07:56:12;3.50;;;3.40;;
20711;SDS011;10517;50.742;4.224;2022-09-09T07:58:40;3.33;;;3.22;;
20711;SDS011;10517;50.742;4.224;2022-09-09T08:01:16;3.40;;;3.30;;
20711;SDS011;10517;50.742;4.224;2022-09-09T08:03:44;12.98;;;4.60;;
20711;SDS011;10517;50.742;4.224;2022-09-09T08:06:12;3.20;;;3.10;;
20711;SDS011;10517;50.742;4.224;2022-09-09T08:08:38;3.47;;;3.38;;
20711;SDS011;10517;50.742;4.224;2022-09-09T08:11:08;3.75;;;3.65;;
20711;SDS011;10517;50.742;4.224;2022-09-09T08:13:39;15.30;;;6.25;;
20711;SDS011;10517;50.742;4.224;2022-09-09T08:16:12;3.42;;;3.33;;
20711;SDS011;10517;50.742;4.224;2022-09-09T08:18:40;3.80;;;3.70;;
20711;SDS011;10517;50.742;4.224;2022-09-09T08:23:37;3.75;;;3.65;;
20711;SDS011;10517;50.742;4.224;2022-09-09T08:26:10;3.88;;;3.78;;
20711;SDS011;10517;50.742;4.224;2022-09-09T08:28:38;3.30;;;3.20;;
20711;SDS011;10517;50.742;4.224;2022-09-09T08:31:09;11.90;;;3.83;;
20711;SDS011;10517;50.742;4.224;2022-09-09T08:33:40;3.55;;;3.45;;
20711;SDS011;10517;50.742;4.224;2022-09-09T08:36:09;3.88;;;3.78;;
20711;SDS011;10517;50.742;4.224;2022-09-09T08:38:36;3.97;;;3.88;;
20711;SDS011;10517;50.742;4.224;2022-09-09T08:41:06;5.38;;;5.15;;
20711;SDS011;10517;50.742;4.224;2022-09-09T08:43:39;4.07;;;3.97;;
20711;SDS011;10517;50.742;4.224;2022-09-09T08:46:12;3.60;;;3.50;;
20711;SDS011;10517;50.742;4.224;2022-09-09T08:48:48;3.40;;;3.30;;
20711;SDS011;10517;50.742;4.224;2022-09-09T08:51:24;4.00;;;3.90;;
20711;SDS011;10517;50.742;4.224;2022-09-09T08:53:53;3.90;;;3.80;;
20711;SDS011;10517;50.742;4.224;2022-09-09T08:56:21;4.70;;;4.50;;
20711;SDS011;10517;50.742;4.224;2022-09-09T08:58:50;3.22;;;3.13;;
20711;SDS011;10517;50.742;4.224;2022-09-09T09:12:53;2.22;;;2.22;;
20711;SDS011;10517;50.742;4.224;2022-09-09T09:15:19;2.40;;;2.30;;
20711;SDS011;10517;50.742;4.224;2022-09-09T09:17:48;2.53;;;2.50;;
20711;SDS011;10517;50.742;4.224;2022-09-09T09:20:15;2.65;;;2.55;;
20711;SDS011;10517;50.742;4.224;2022-09-09T09:22:49;3.05;;;2.95;;
20711;SDS011;10517;50.742;4.224;2022-09-09T09:28:02;2.10;;;2.10;;
20711;SDS011;10517;50.742;4.224;2022-09-09T09:30:54;2.35;;;2.25;;
20711;SDS011;10517;50.742;4.224;2022-09-09T09:33:35;2.10;;;2.10;;
20711;SDS011;10517;50.742;4.224;2022-09-09T09:36:06;1.88;;;1.88;;
20711;SDS011;10517;50.742;4.224;2022-09-09T09:38:33;1.80;;;1.80;;
20711;SDS011;10517;50.742;4.224;2022-09-09T09:41:01;1.95;;;1.95;;
20711;SDS011;10517;50.742;4.224;2022-09-09T09:43:28;2.20;;;2.20;;
20711;SDS011;10517;50.742;4.224;2022-09-09T09:46:04;2.63;;;2.53;;
20711;SDS011;10517;50.742;4.224;2022-09-09T09:48:30;3.50;;;3.30;;
20711;SDS011;10517;50.742;4.224;2022-09-09T09:51:06;3.45;;;2.83;;
20711;SDS011;10517;50.742;4.224;2022-09-09T09:53:35;2.65;;;2.55;;
20711;SDS011;10517;50.742;4.224;2022-09-09T09:56:06;3.05;;;2.95;;
20711;SDS011;10517;50.742;4.224;2022-09-09T09:58:48;6.85;;;3.83;;
20711;SDS011;10517;50.742;4.224;2022-09-09T10:01:33;2.63;;;2.60;;
20711;SDS011;10517;50.742;4.224;2022-09-09T10:04:01;2.67;;;2.58;;
20711;SDS011;10517;50.742;4.224;2022-09-09T10:06:48;2.40;;;2.40;;
20711;SDS011;10517;50.742;4.224;2022-09-09T10:09:30;15.00;;;3.58;;
20711;SDS011;10517;50.742;4.224;2022-09-09T10:20:32;10.23;;;4.80;;
20711;SDS011;10517;50.742;4.224;2022-09-09T10:37:13;3.17;;;3.08;;
20711;SDS011;10517;50.742;4.224;2022-09-09T10:39:50;2.90;;;2.80;;
20711;SDS011;10517;50.742;4.224;2022-09-09T10:42:30;2.90;;;2.80;;
20711;SDS011;10517;50.742;4.224;2022-09-09T10:53:16;3.20;;;3.10;;
20711;SDS011;10517;50.742;4.224;2022-09-09T10:55:53;3.08;;;2.97;;
20711;SDS011;10517;50.742;4.224;2022-09-09T10:58:47;3.10;;;3.00;;
20711;SDS011;10517;50.742;4.224;2022-09-09T11:01:31;3.20;;;3.10;;
20711;SDS011;10517;50.742;4.224;2022-09-09T11:04:19;3.13;;;3.03;;
20711;SDS011;10517;50.742;4.224;2022-09-09T11:07:13;6.25;;;5.82;;
20711;SDS011;10517;50.742;4.224;2022-09-09T11:09:50;4.95;;;4.55;;
20711;SDS011;10517;50.742;4.224;2022-09-09T11:12:21;4.78;;;3.95;;
20711;SDS011;10517;50.742;4.224;2022-09-09T11:14:51;3.00;;;2.90;;
20711;SDS011;10517;50.742;4.224;2022-09-09T11:17:23;3.03;;;2.92;;
20711;SDS011;10517;50.742;4.224;2022-09-09T11:19:53;2.92;;;2.83;;
20711;SDS011;10517;50.742;4.224;2022-09-09T11:25:17;3.30;;;3.20;;
20711;SDS011;10517;50.742;4.224;2022-09-09T11:34:08;3.40;;;3.30;;
20711;SDS011;10517;50.742;4.224;2022-09-09T11:42:23;3.70;;;3.60;;
20711;SDS011;10517;50.742;4.224;2022-09-09T11:44:49;3.30;;;3.20;;
20711;SDS011;10517;50.742;4.224;2022-09-09T11:47:20;3.42;;;3.33;;
20711;SDS011;10517;50.742;4.224;2022-09-09T11:52:41;3.40;;;3.30;;
20711;SDS011;10517;50.742;4.224;2022-09-09T11:55:25;3.40;;;3.30;;
20711;SDS011;10517;50.742;4.224;2022-09-09T11:58:02;3.10;;;3.00;;
20711;SDS011;10517;50.742;4.224;2022-09-09T12:00:40;3.50;;;3.40;;
20711;SDS011;10517;50.742;4.224;2022-09-09T12:06:12;3.30;;;3.20;;
20711;SDS011;10517;50.742;4.224;2022-09-09T12:08:46;3.30;;;3.20;;
20711;SDS011;10517;50.742;4.224;2022-09-09T12:11:26;3.17;;;3.08;;
20711;SDS011;10517;50.742;4.224;2022-09-09T12:13:57;3.17;;;3.08;;
20711;SDS011;10517;50.742;4.224;2022-09-09T12:16:34;3.30;;;3.20;;
20711;SDS011;10517;50.742;4.224;2022-09-09T12:19:15;2.90;;;2.78;;
20711;SDS011;10517;50.742;4.224;2022-09-09T12:24:27;3.78;;;3.67;;
20711;SDS011;10517;50.742;4.224;2022-09-09T12:29:50;3.80;;;3.70;;
20711;SDS011;10517;50.742;4.224;2022-09-09T12:32:33;4.15;;;4.05;;
20711;SDS011;10517;50.742;4.224;2022-09-09T12:37:32;4.65;;;4.45;;
20711;SDS011;10517;50.742;4.224;2022-09-09T12:42:46;3.88;;;3.78;;
20711;SDS011;10517;50.742;4.224;2022-09-09T12:45:31;4.25;;;4.15;;
20711;SDS011;10517;50.742;4.224;2022-09-09T12:48:04;3.97;;;3.88;;
20711;SDS011;10517;50.742;4.224;2022-09-09T12:50:34;4.63;;;4.43;;
20711;SDS011;10517;50.742;4.224;2022-09-09T12:56:03;3.92;;;3.83;;
20711;SDS011;10517;50.742;4.224;2022-09-09T12:58:32;3.50;;;3.40;;
20711;SDS011;10517;50.742;4.224;2022-09-09T13:00:58;3.92;;;3.83;;
20711;SDS011;10517;50.742;4.224;2022-09-09T13:03:25;6.55;;;4.38;;
20711;SDS011;10517;50.742;4.224;2022-09-09T13:05:52;3.30;;;3.20;;
20711;SDS011;10517;50.742;4.224;2022-09-09T13:08:19;3.67;;;3.53;;
20711;SDS011;10517;50.742;4.224;2022-09-09T13:10:53;3.05;;;2.95;;
20711;SDS011;10517;50.742;4.224;2022-09-09T13:13:28;2.78;;;2.67;;
20711;SDS011;10517;50.742;4.224;2022-09-09T13:16:00;2.20;;;2.20;;
20711;SDS011;10517;50.742;4.224;2022-09-09T13:18:30;2.30;;;2.30;;
20711;SDS011;10517;50.742;4.224;2022-09-09T13:20:58;2.03;;;2.03;;
20711;SDS011;10517;50.742;4.224;2022-09-09T13:23:28;2.10;;;2.10;;
20711;SDS011;10517;50.742;4.224;2022-09-09T13:26:00;7.60;;;3.25;;
20711;SDS011;10517;50.742;4.224;2022-09-09T13:28:29;2.20;;;2.20;;
20711;SDS011;10517;50.742;4.224;2022-09-09T13:30:59;2.50;;;2.40;;
20711;SDS011;10517;50.742;4.224;2022-09-09T13:33:30;2.30;;;2.30;;
20711;SDS011;10517;50.742;4.224;2022-09-09T13:35:57;2.20;;;2.20;;
20711;SDS011;10517;50.742;4.224;2022-09-09T13:38:38;6.43;;;3.45;;
20711;SDS011;10517;50.742;4.224;2022-09-09T13:41:19;2.70;;;2.50;;
20711;SDS011;10517;50.742;4.224;2022-09-09T13:43:50;6.95;;;3.05;;
20711;SDS011;10517;50.742;4.224;2022-09-09T13:49:00;3.10;;;2.90;;
20711;SDS011;10517;50.742;4.224;2022-09-09T13:51:46;7.53;;;2.70;;
20711;SDS011;10517;50.742;4.224;2022-09-09T13:54:18;2.70;;;2.47;;
20711;SDS011;10517;50.742;4.224;2022-09-09T13:56:45;2.65;;;2.45;;
20711;SDS011;10517;50.742;4.224;2022-09-09T13:59:15;3.05;;;2.60;;
20711;SDS011;10517;50.742;4.224;2022-09-09T14:01:44;4.63;;;2.75;;
20711;SDS011;10517;50.742;4.224;2022-09-09T14:04:10;5.50;;;2.63;;
20711;SDS011;10517;50.742;4.224;2022-09-09T14:06:36;2.55;;;2.30;;
20711;SDS011;10517;50.742;4.224;2022-09-09T14:09:03;2.70;;;2.50;;
20711;SDS011;10517;50.742;4.224;2022-09-09T14:11:29;2.88;;;2.50;;
20711;SDS011;10517;50.742;4.224;2022-09-09T14:13:55;2.67;;;2.47;;
20711;SDS011;10517;50.742;4.224;2022-09-09T14:16:21;2.40;;;2.30;;
20711;SDS011;10517;50.742;4.224;2022-09-09T14:18:46;2.33;;;2.17;;
20711;SDS011;10517;50.742;4.224;2022-09-09T14:21:13;2.55;;;2.45;;
20711;SDS011;10517;50.742;4.224;2022-09-09T14:23:40;2.88;;;2.28;;
20711;SDS011;10517;50.742;4.224;2022-09-09T14:26:06;3.33;;;2.15;;
20711;SDS011;10517;50.742;4.224;2022-09-09T14:28:33;2.63;;;2.42;;
20711;SDS011;10517;50.742;4.224;2022-09-09T14:31:00;3.72;;;2.75;;
20711;SDS011;10517;50.742;4.224;2022-09-09T14:33:26;4.03;;;2.30;;
20711;SDS011;10517;50.742;4.224;2022-09-09T14:36:01;3.60;;;2.67;;
20711;SDS011;10517;50.742;4.224;2022-09-09T14:38:29;3.28;;;2.83;;
20711;SDS011;10517;50.742;4.224;2022-09-09T14:40:56;2.42;;;2.22;;
20711;SDS011;10517;50.742;4.224;2022-09-09T14:43:23;2.17;;;2.03;;
20711;SDS011;10517;50.742;4.224;2022-09-09T14:45:50;2.88;;;2.03;;
20711;SDS011;10517;50.742;4.224;2022-09-09T14:48:16;5.82;;;2.42;;
20711;SDS011;10517;50.742;4.224;2022-09-09T14:50:42;2.60;;;2.42;;
20711;SDS011;10517;50.742;4.224;2022-09-09T14:53:08;4.93;;;2.95;;
20711;SDS011;10517;50.742;4.224;2022-09-09T14:55:35;4.70;;;2.22;;
20711;SDS011;10517;50.742;4.224;2022-09-09T14:58:00;2.60;;;2.40;;
20711;SDS011;10517;50.742;4.224;2022-09-09T15:00:26;2.30;;;2.20;;
20711;SDS011;10517;50.742;4.224;2022-09-09T15:02:55;2.80;;;2.20;;
20711;SDS011;10517;50.742;4.224;2022-09-09T15:05:20;4.90;;;2.20;;
20711;SDS011;10517;50.742;4.224;2022-09-09T15:07:47;2.58;;;2.38;;
20711;SDS011;10517;50.742;4.224;2022-09-09T15:10:13;2.55;;;2.00;;
20711;SDS011;10517;50.742;4.224;2022-09-09T15:12:39;1.92;;;1.83;;
20711;SDS011;10517;50.742;4.224;2022-09-09T15:15:06;3.75;;;2.05;;
20711;SDS011;10517;50.742;4.224;2022-09-09T15:17:32;2.00;;;1.77;;
20711;SDS011;10517;50.742;4.224;2022-09-09T15:19:58;2.38;;;2.05;;
20711;SDS011;10517;50.742;4.224;2022-09-09T15:22:24;2.20;;;2.00;;
20711;SDS011;10517;50.742;4.224;2022-09-09T15:24:50;5.32;;;2.00;;
20711;SDS011;10517;50.742;4.224;2022-09-09T15:27:15;1.73;;;1.63;;
20711;SDS011;10517;50.742;4.224;2022-09-09T15:29:41;1.90;;;1.67;;
20711;SDS011;10517;50.742;4.224;2022-09-09T15:32:07;1.80;;;1.70;;
20711;SDS011;10517;50.742;4.224;2022-09-09T15:34:33;1.88;;;1.70;;
20711;SDS011;10517;50.742;4.224;2022-09-09T15:36:58;3.90;;;1.70;;
20711;SDS011;10517;50.742;4.224;2022-09-09T15:39:25;4.30;;;1.83;;
20711;SDS011;10517;50.742;4.224;2022-09-09T15:41:51;4.45;;;2.17;;
20711;SDS011;10517;50.742;4.224;2022-09-09T15:44:18;17.88;;;3.00;;
20711;SDS011;10517;50.742;4.224;2022-09-09T15:46:44;4.60;;;2.30;;
20711;SDS011;10517;50.742;4.224;2022-09-09T15:49:15;2.25;;;2.13;;
20711;SDS011;10517;50.742;4.224;2022-09-09T15:51:44;2.70;;;2.40;;
20711;SDS011;10517;50.742;4.224;2022-09-09T15:54:12;2.60;;;2.50;;
20711;SDS011;10517;50.742;4.224;2022-09-09T15:56:43;3.72;;;2.30;;
20711;SDS011;10517;50.742;4.224;2022-09-09T15:59:10;2.22;;;2.20;;
20711;SDS011;10517;50.742;4.224;2022-09-09T16:01:36;2.55;;;2.35;;
20711;SDS011;10517;50.742;4.224;2022-09-09T16:04:04;4.30;;;2.40;;
20711;SDS011;10517;50.742;4.224;2022-09-09T16:06:30;2.30;;;2.20;;
20711;SDS011;10517;50.742;4.224;2022-09-09T16:08:56;3.42;;;2.30;;
20711;SDS011;10517;50.742;4.224;2022-09-09T16:11:24;3.42;;;2.58;;
20711;SDS011;10517;50.742;4.224;2022-09-09T16:13:51;2.65;;;2.45;;
20711;SDS011;10517;50.742;4.224;2022-09-09T16:16:19;4.38;;;2.40;;
20711;SDS011;10517;50.742;4.224;2022-09-09T16:18:50;2.33;;;2.13;;
20711;SDS011;10517;50.742;4.224;2022-09-09T16:23:46;2.13;;;1.90;;
20711;SDS011;10517;50.742;4.224;2022-09-09T16:26:14;1.90;;;1.80;;
20711;SDS011;10517;50.742;4.224;2022-09-09T16:28:41;3.33;;;1.80;;
20711;SDS011;10517;50.742;4.224;2022-09-09T16:31:07;2.20;;;2.00;;
20711;SDS011;10517;50.742;4.224;2022-09-09T16:33:35;1.80;;;1.70;;
20711;SDS011;10517;50.742;4.224;2022-09-09T16:36:05;4.07;;;2.15;;
20711;SDS011;10517;50.742;4.224;2022-09-09T16:38:32;5.57;;;5.30;;
20711;SDS011;10517;50.742;4.224;2022-09-09T16:40:58;5.13;;;4.80;;
20711;SDS011;10517;50.742;4.224;2022-09-09T16:43:25;3.92;;;3.72;;
20711;SDS011;10517;50.742;4.224;2022-09-09T16:45:50;4.03;;;3.10;;
20711;SDS011;10517;50.742;4.224;2022-09-09T16:48:16;4.90;;;2.30;;
20711;SDS011;10517;50.742;4.224;2022-09-09T16:50:41;3.58;;;2.00;;
20711;SDS011;10517;50.742;4.224;2022-09-09T16:53:07;2.45;;;1.90;;
20711;SDS011;10517;50.742;4.224;2022-09-09T16:55:37;2.30;;;1.75;;
20711;SDS011;10517;50.742;4.224;2022-09-09T16:58:04;1.90;;;1.63;;
20711;SDS011;10517;50.742;4.224;2022-09-09T17:00:29;2.15;;;2.05;;
20711;SDS011;10517;50.742;4.224;2022-09-09T17:02:55;2.30;;;1.88;;
20711;SDS011;10517;50.742;4.224;2022-09-09T17:05:20;1.92;;;1.80;;
20711;SDS011;10517;50.742;4.224;2022-09-09T17:07:46;3.17;;;2.30;;
20711;SDS011;10517;50.742;4.224;2022-09-09T17:10:11;1.95;;;1.77;;
20711;SDS011;10517;50.742;4.224;2022-09-09T17:12:38;3.20;;;1.95;;
20711;SDS011;10517;50.742;4.224;2022-09-09T17:15:05;2.47;;;1.70;;
20711;SDS011;10517;50.742;4.224;2022-09-09T17:17:31;2.95;;;2.13;;
20711;SDS011;10517;50.742;4.224;2022-09-09T17:19:57;2.70;;;1.70;;
20711;SDS011;10517;50.742;4.224;2022-09-09T17:22:22;2.47;;;1.52;;
20711;SDS011;10517;50.742;4.224;2022-09-09T17:24:48;2.10;;;1.98;;